sensor_id;sensor_type;location;lat;lon;timestamp;P1;durP1;ratioP1;P2;durP2;ratioP2
42866;SDS011;39461;40.948;73.006;2022-07-10T00:02:30;9.15;;;4.38;;
42866;SDS011;39461;40.948;73.006;2022-07-10T00:05:05;15.02;;;5.13;;
42866;SDS011;39461;40.948;73.006;2022-07-10T00:07:40;18.67;;;5.28;;
42866;SDS011;39461;40.948;73.006;2022-07-10T00:10:14;10.48;;;4.55;;
42866;SDS011;39461;40.948;73.006;2022-07-10T00:12:48;15.13;;;3.75;;
42866;SDS011;39461;40.948;73.006;2022-07-10T00:15:21;19.45;;;4.32;;
42866;SDS011;39461;40.948;73.006;2022-07-10T00:17:57;19.95;;;4.72;;
42866;SDS011;39461;40.948;73.006;2022-07-10T00:20:36;21.42;;;4.85;;
42866;SDS011;39461;40.948;73.006;2022-07-10T00:23:12;18.65;;;4.57;;
42866;SDS011;39461;40.948;73.006;2022-07-10T00:25:51;18.67;;;4.43;;
42866;SDS011;39461;40.948;73.006;2022-07-10T00:28:24;11.85;;;4.70;;
42866;SDS011;39461;40.948;73.006;2022-07-10T00:30:58;14.48;;;4.80;;
42866;SDS011;39461;40.948;73.006;2022-07-10T00:33:35;14.95;;;5.03;;
42866;SDS011;39461;40.948;73.006;2022-07-10T00:36:09;14.38;;;5.00;;
42866;SDS011;39461;40.948;73.006;2022-07-10T00:38:42;22.33;;;5.10;;
42866;SDS011;39461;40.948;73.006;2022-07-10T00:41:15;11.20;;;4.53;;
42866;SDS011;39461;40.948;73.006;2022-07-10T00:43:56;20.10;;;5.22;;
42866;SDS011;39461;40.948;73.006;2022-07-10T00:46:31;18.58;;;4.28;;
42866;SDS011;39461;40.948;73.006;2022-07-10T00:49:05;17.60;;;4.10;;
42866;SDS011;39461;40.948;73.006;2022-07-10T00:51:38;16.10;;;4.93;;
42866;SDS011;39461;40.948;73.006;2022-07-10T00:54:11;13.80;;;5.20;;
42866;SDS011;39461;40.948;73.006;2022-07-10T00:56:45;21.35;;;5.20;;
42866;SDS011;39461;40.948;73.006;2022-07-10T00:59:18;22.08;;;5.28;;
42866;SDS011;39461;40.948;73.006;2022-07-10T01:01:52;16.13;;;4.88;;
42866;SDS011;39461;40.948;73.006;2022-07-10T01:04:26;23.90;;;5.50;;
42866;SDS011;39461;40.948;73.006;2022-07-10T01:06:59;14.60;;;4.75;;
42866;SDS011;39461;40.948;73.006;2022-07-10T01:09:32;19.15;;;4.97;;
42866;SDS011;39461;40.948;73.006;2022-07-10T01:12:06;14.25;;;5.15;;
42866;SDS011;39461;40.948;73.006;2022-07-10T01:14:39;20.75;;;5.00;;
42866;SDS011;39461;40.948;73.006;2022-07-10T01:17:14;18.55;;;5.63;;
42866;SDS011;39461;40.948;73.006;2022-07-10T01:19:47;14.13;;;4.97;;
42866;SDS011;39461;40.948;73.006;2022-07-10T01:22:20;17.65;;;5.85;;
42866;SDS011;39461;40.948;73.006;2022-07-10T01:24:54;26.85;;;7.03;;
42866;SDS011;39461;40.948;73.006;2022-07-10T01:27:31;14.82;;;4.85;;
42866;SDS011;39461;40.948;73.006;2022-07-10T01:30:00;18.13;;;5.55;;
42866;SDS011;39461;40.948;73.006;2022-07-10T01:32:39;13.15;;;5.25;;
42866;SDS011;39461;40.948;73.006;2022-07-10T01:35:08;15.57;;;5.63;;
42866;SDS011;39461;40.948;73.006;2022-07-10T01:37:42;13.63;;;5.57;;
42866;SDS011;39461;40.948;73.006;2022-07-10T01:40:15;13.60;;;5.25;;
42866;SDS011;39461;40.948;73.006;2022-07-10T01:42:48;18.63;;;5.35;;
42866;SDS011;39461;40.948;73.006;2022-07-10T01:45:21;16.55;;;6.53;;
42866;SDS011;39461;40.948;73.006;2022-07-10T01:47:54;17.77;;;6.38;;
42866;SDS011;39461;40.948;73.006;2022-07-10T01:50:28;17.20;;;5.05;;
42866;SDS011;39461;40.948;73.006;2022-07-10T01:53:03;16.10;;;4.90;;
42866;SDS011;39461;40.948;73.006;2022-07-10T01:55:37;14.40;;;5.28;;
42866;SDS011;39461;40.948;73.006;2022-07-10T01:58:10;22.15;;;5.35;;
42866;SDS011;39461;40.948;73.006;2022-07-10T02:00:43;15.77;;;5.25;;
42866;SDS011;39461;40.948;73.006;2022-07-10T02:03:17;20.25;;;4.90;;
42866;SDS011;39461;40.948;73.006;2022-07-10T02:06:09;14.38;;;5.18;;
42866;SDS011;39461;40.948;73.006;2022-07-10T02:08:42;15.13;;;4.85;;
42866;SDS011;39461;40.948;73.006;2022-07-10T02:11:15;22.08;;;4.93;;
42866;SDS011;39461;40.948;73.006;2022-07-10T02:13:48;15.65;;;4.80;;
42866;SDS011;39461;40.948;73.006;2022-07-10T02:16:28;12.90;;;5.22;;
42866;SDS011;39461;40.948;73.006;2022-07-10T02:19:04;20.13;;;7.47;;
42866;SDS011;39461;40.948;73.006;2022-07-10T02:21:39;18.13;;;6.35;;
42866;SDS011;39461;40.948;73.006;2022-07-10T02:24:14;22.38;;;7.25;;
42866;SDS011;39461;40.948;73.006;2022-07-10T02:26:47;25.75;;;6.63;;
42866;SDS011;39461;40.948;73.006;2022-07-10T02:29:22;20.48;;;6.65;;
42866;SDS011;39461;40.948;73.006;2022-07-10T02:31:56;14.80;;;6.03;;
42866;SDS011;39461;40.948;73.006;2022-07-10T02:34:39;19.58;;;6.75;;
42866;SDS011;39461;40.948;73.006;2022-07-10T02:37:15;18.02;;;6.13;;
42866;SDS011;39461;40.948;73.006;2022-07-10T02:39:50;19.35;;;6.88;;
42866;SDS011;39461;40.948;73.006;2022-07-10T02:42:25;25.58;;;7.85;;
42866;SDS011;39461;40.948;73.006;2022-07-10T02:45:00;22.52;;;7.00;;
42866;SDS011;39461;40.948;73.006;2022-07-10T02:47:35;23.23;;;7.80;;
42866;SDS011;39461;40.948;73.006;2022-07-10T02:50:10;19.75;;;8.70;;
42866;SDS011;39461;40.948;73.006;2022-07-10T02:52:46;30.08;;;11.50;;
42866;SDS011;39461;40.948;73.006;2022-07-10T02:55:21;28.33;;;8.15;;
42866;SDS011;39461;40.948;73.006;2022-07-10T02:57:54;19.60;;;7.38;;
42866;SDS011;39461;40.948;73.006;2022-07-10T03:00:27;20.70;;;7.68;;
42866;SDS011;39461;40.948;73.006;2022-07-10T03:03:00;23.73;;;7.78;;
42866;SDS011;39461;40.948;73.006;2022-07-10T03:05:33;26.75;;;8.15;;
42866;SDS011;39461;40.948;73.006;2022-07-10T03:08:07;25.38;;;7.63;;
42866;SDS011;39461;40.948;73.006;2022-07-10T03:10:40;24.48;;;7.47;;
42866;SDS011;39461;40.948;73.006;2022-07-10T03:13:13;21.35;;;8.15;;
42866;SDS011;39461;40.948;73.006;2022-07-10T03:15:46;21.63;;;8.18;;
42866;SDS011;39461;40.948;73.006;2022-07-10T03:18:19;22.83;;;9.38;;
42866;SDS011;39461;40.948;73.006;2022-07-10T03:21:00;25.52;;;8.10;;
42866;SDS011;39461;40.948;73.006;2022-07-10T03:23:33;23.33;;;7.13;;
42866;SDS011;39461;40.948;73.006;2022-07-10T03:26:08;26.67;;;8.07;;
42866;SDS011;39461;40.948;73.006;2022-07-10T03:28:35;21.67;;;8.93;;
42866;SDS011;39461;40.948;73.006;2022-07-10T03:31:10;21.08;;;7.53;;
42866;SDS011;39461;40.948;73.006;2022-07-10T03:33:39;26.52;;;9.07;;
42866;SDS011;39461;40.948;73.006;2022-07-10T03:36:12;18.52;;;7.75;;
42866;SDS011;39461;40.948;73.006;2022-07-10T03:38:45;18.63;;;7.32;;
42866;SDS011;39461;40.948;73.006;2022-07-10T03:41:20;19.85;;;7.78;;
42866;SDS011;39461;40.948;73.006;2022-07-10T03:43:53;23.83;;;7.80;;
42866;SDS011;39461;40.948;73.006;2022-07-10T03:46:37;26.50;;;7.90;;
42866;SDS011;39461;40.948;73.006;2022-07-10T03:52:06;21.15;;;7.10;;
42866;SDS011;39461;40.948;73.006;2022-07-10T03:54:40;27.15;;;7.70;;
42866;SDS011;39461;40.948;73.006;2022-07-10T03:57:13;33.63;;;7.75;;
42866;SDS011;39461;40.948;73.006;2022-07-10T04:00:05;17.35;;;7.47;;
42866;SDS011;39461;40.948;73.006;2022-07-10T04:02:39;23.52;;;8.13;;
42866;SDS011;39461;40.948;73.006;2022-07-10T04:05:12;21.90;;;7.43;;
42866;SDS011;39461;40.948;73.006;2022-07-10T04:07:45;17.63;;;6.95;;
42866;SDS011;39461;40.948;73.006;2022-07-10T04:10:18;25.95;;;8.75;;
42866;SDS011;39461;40.948;73.006;2022-07-10T04:12:52;25.88;;;9.13;;
42866;SDS011;39461;40.948;73.006;2022-07-10T04:15:32;21.55;;;8.15;;
42866;SDS011;39461;40.948;73.006;2022-07-10T04:18:05;18.30;;;8.38;;
42866;SDS011;39461;40.948;73.006;2022-07-10T04:20:38;15.20;;;7.93;;
42866;SDS011;39461;40.948;73.006;2022-07-10T04:23:11;23.75;;;8.63;;
42866;SDS011;39461;40.948;73.006;2022-07-10T04:25:44;22.00;;;8.50;;
42866;SDS011;39461;40.948;73.006;2022-07-10T04:28:17;16.95;;;7.63;;
42866;SDS011;39461;40.948;73.006;2022-07-10T04:30:50;19.65;;;7.38;;
42866;SDS011;39461;40.948;73.006;2022-07-10T04:33:25;20.55;;;7.57;;
42866;SDS011;39461;40.948;73.006;2022-07-10T04:35:58;18.25;;;6.93;;
42866;SDS011;39461;40.948;73.006;2022-07-10T04:38:31;20.25;;;7.43;;
42866;SDS011;39461;40.948;73.006;2022-07-10T04:41:04;18.50;;;6.55;;
42866;SDS011;39461;40.948;73.006;2022-07-10T04:43:40;18.17;;;6.82;;
42866;SDS011;39461;40.948;73.006;2022-07-10T04:46:19;26.17;;;7.93;;
42866;SDS011;39461;40.948;73.006;2022-07-10T04:48:52;27.80;;;7.93;;
42866;SDS011;39461;40.948;73.006;2022-07-10T04:51:26;27.17;;;7.72;;
42866;SDS011;39461;40.948;73.006;2022-07-10T04:53:59;25.40;;;7.80;;
42866;SDS011;39461;40.948;73.006;2022-07-10T04:56:26;18.80;;;6.90;;
42866;SDS011;39461;40.948;73.006;2022-07-10T04:58:59;26.67;;;8.25;;
42866;SDS011;39461;40.948;73.006;2022-07-10T05:01:32;28.85;;;8.68;;
42866;SDS011;39461;40.948;73.006;2022-07-10T05:04:05;22.95;;;7.00;;
42866;SDS011;39461;40.948;73.006;2022-07-10T05:06:46;23.45;;;7.60;;
42866;SDS011;39461;40.948;73.006;2022-07-10T05:09:23;22.52;;;7.20;;
42866;SDS011;39461;40.948;73.006;2022-07-10T05:11:58;18.98;;;7.25;;
42866;SDS011;39461;40.948;73.006;2022-07-10T05:14:34;17.35;;;6.55;;
42866;SDS011;39461;40.948;73.006;2022-07-10T05:17:07;18.77;;;6.82;;
42866;SDS011;39461;40.948;73.006;2022-07-10T05:19:40;21.38;;;7.60;;
42866;SDS011;39461;40.948;73.006;2022-07-10T05:22:13;22.92;;;6.63;;
42866;SDS011;39461;40.948;73.006;2022-07-10T05:24:46;28.55;;;7.55;;
42866;SDS011;39461;40.948;73.006;2022-07-10T05:27:18;17.95;;;7.30;;
42866;SDS011;39461;40.948;73.006;2022-07-10T05:29:46;34.75;;;8.45;;
42866;SDS011;39461;40.948;73.006;2022-07-10T05:32:20;20.48;;;6.82;;
42866;SDS011;39461;40.948;73.006;2022-07-10T05:34:48;15.50;;;7.68;;
42866;SDS011;39461;40.948;73.006;2022-07-10T05:37:21;19.63;;;7.28;;
42866;SDS011;39461;40.948;73.006;2022-07-10T05:40:00;22.52;;;7.55;;
42866;SDS011;39461;40.948;73.006;2022-07-10T05:42:33;19.48;;;8.45;;
42866;SDS011;39461;40.948;73.006;2022-07-10T05:45:13;17.38;;;7.10;;
42866;SDS011;39461;40.948;73.006;2022-07-10T05:47:46;29.95;;;7.68;;
42866;SDS011;39461;40.948;73.006;2022-07-10T05:50:19;46.53;;;9.02;;
42866;SDS011;39461;40.948;73.006;2022-07-10T05:52:53;21.23;;;8.23;;
42866;SDS011;39461;40.948;73.006;2022-07-10T05:55:26;20.17;;;7.70;;
42866;SDS011;39461;40.948;73.006;2022-07-10T05:57:59;17.17;;;7.15;;
42866;SDS011;39461;40.948;73.006;2022-07-10T06:00:32;17.98;;;7.70;;
42866;SDS011;39461;40.948;73.006;2022-07-10T06:03:06;23.27;;;7.90;;
42866;SDS011;39461;40.948;73.006;2022-07-10T06:05:39;22.65;;;8.30;;
42866;SDS011;39461;40.948;73.006;2022-07-10T06:08:12;23.17;;;7.95;;
42866;SDS011;39461;40.948;73.006;2022-07-10T06:10:45;21.90;;;7.75;;
42866;SDS011;39461;40.948;73.006;2022-07-10T06:13:18;25.52;;;7.70;;
42866;SDS011;39461;40.948;73.006;2022-07-10T06:15:51;22.25;;;8.10;;
42866;SDS011;39461;40.948;73.006;2022-07-10T06:18:24;20.35;;;7.95;;
42866;SDS011;39461;40.948;73.006;2022-07-10T06:20:58;16.52;;;6.63;;
42866;SDS011;39461;40.948;73.006;2022-07-10T06:23:31;25.88;;;8.32;;
42866;SDS011;39461;40.948;73.006;2022-07-10T06:26:10;18.73;;;7.45;;
42866;SDS011;39461;40.948;73.006;2022-07-10T06:28:43;19.08;;;7.35;;
42866;SDS011;39461;40.948;73.006;2022-07-10T06:31:17;16.90;;;7.30;;
42866;SDS011;39461;40.948;73.006;2022-07-10T06:33:50;21.60;;;7.88;;
42866;SDS011;39461;40.948;73.006;2022-07-10T06:36:23;26.17;;;8.13;;
42866;SDS011;39461;40.948;73.006;2022-07-10T06:38:56;18.05;;;6.28;;
42866;SDS011;39461;40.948;73.006;2022-07-10T06:41:29;14.50;;;5.78;;
42866;SDS011;39461;40.948;73.006;2022-07-10T06:44:02;22.50;;;6.82;;
42866;SDS011;39461;40.948;73.006;2022-07-10T06:46:38;15.20;;;5.88;;
42866;SDS011;39461;40.948;73.006;2022-07-10T06:49:17;16.77;;;5.82;;
42866;SDS011;39461;40.948;73.006;2022-07-10T06:51:52;17.85;;;5.00;;
42866;SDS011;39461;40.948;73.006;2022-07-10T06:54:25;26.10;;;6.05;;
42866;SDS011;39461;40.948;73.006;2022-07-10T06:56:58;11.05;;;5.47;;
42866;SDS011;39461;40.948;73.006;2022-07-10T06:59:32;17.95;;;5.75;;
42866;SDS011;39461;40.948;73.006;2022-07-10T07:02:05;28.73;;;5.60;;
42866;SDS011;39461;40.948;73.006;2022-07-10T07:04:39;17.00;;;5.55;;
42866;SDS011;39461;40.948;73.006;2022-07-10T07:07:12;17.85;;;5.40;;
42866;SDS011;39461;40.948;73.006;2022-07-10T07:09:46;16.95;;;5.53;;
42866;SDS011;39461;40.948;73.006;2022-07-10T07:12:23;17.15;;;5.38;;
42866;SDS011;39461;40.948;73.006;2022-07-10T07:15:03;25.25;;;7.35;;
42866;SDS011;39461;40.948;73.006;2022-07-10T07:17:40;18.13;;;6.28;;
42866;SDS011;39461;40.948;73.006;2022-07-10T07:20:28;22.95;;;6.45;;
42866;SDS011;39461;40.948;73.006;2022-07-10T07:23:21;16.55;;;5.63;;
42866;SDS011;39461;40.948;73.006;2022-07-10T07:25:54;16.20;;;6.25;;
42866;SDS011;39461;40.948;73.006;2022-07-10T07:28:23;21.10;;;5.97;;
42866;SDS011;39461;40.948;73.006;2022-07-10T07:30:58;24.63;;;6.18;;
42866;SDS011;39461;40.948;73.006;2022-07-10T07:33:33;23.60;;;5.82;;
42866;SDS011;39461;40.948;73.006;2022-07-10T07:36:12;17.27;;;5.80;;
42866;SDS011;39461;40.948;73.006;2022-07-10T07:38:45;13.52;;;4.75;;
42866;SDS011;39461;40.948;73.006;2022-07-10T07:41:20;14.30;;;5.03;;
42866;SDS011;39461;40.948;73.006;2022-07-10T07:43:54;15.02;;;5.38;;
42866;SDS011;39461;40.948;73.006;2022-07-10T07:46:27;17.52;;;5.30;;
42866;SDS011;39461;40.948;73.006;2022-07-10T07:49:00;19.80;;;4.95;;
42866;SDS011;39461;40.948;73.006;2022-07-10T07:51:35;17.00;;;4.75;;
42866;SDS011;39461;40.948;73.006;2022-07-10T07:54:09;14.48;;;5.30;;
42866;SDS011;39461;40.948;73.006;2022-07-10T07:56:42;19.98;;;5.63;;
42866;SDS011;39461;40.948;73.006;2022-07-10T07:59:15;16.70;;;5.90;;
42866;SDS011;39461;40.948;73.006;2022-07-10T08:01:48;20.58;;;5.53;;
42866;SDS011;39461;40.948;73.006;2022-07-10T08:04:23;13.25;;;5.43;;
42866;SDS011;39461;40.948;73.006;2022-07-10T08:06:58;16.30;;;5.28;;
42866;SDS011;39461;40.948;73.006;2022-07-10T08:09:33;13.20;;;5.68;;
42866;SDS011;39461;40.948;73.006;2022-07-10T08:12:06;14.77;;;5.72;;
42866;SDS011;39461;40.948;73.006;2022-07-10T08:14:40;16.15;;;6.43;;
42866;SDS011;39461;40.948;73.006;2022-07-10T08:17:13;12.43;;;4.85;;
42866;SDS011;39461;40.948;73.006;2022-07-10T08:19:46;17.92;;;6.00;;
42866;SDS011;39461;40.948;73.006;2022-07-10T08:22:19;20.15;;;5.35;;
42866;SDS011;39461;40.948;73.006;2022-07-10T08:24:52;18.90;;;5.30;;
42866;SDS011;39461;40.948;73.006;2022-07-10T08:27:26;24.23;;;5.53;;
42866;SDS011;39461;40.948;73.006;2022-07-10T08:29:59;22.48;;;5.13;;
42866;SDS011;39461;40.948;73.006;2022-07-10T08:32:32;12.80;;;5.25;;
42866;SDS011;39461;40.948;73.006;2022-07-10T08:35:05;15.50;;;5.35;;
42866;SDS011;39461;40.948;73.006;2022-07-10T08:37:40;14.52;;;5.80;;
42866;SDS011;39461;40.948;73.006;2022-07-10T08:40:14;19.33;;;5.53;;
42866;SDS011;39461;40.948;73.006;2022-07-10T08:42:47;24.65;;;5.80;;
42866;SDS011;39461;40.948;73.006;2022-07-10T08:45:21;17.13;;;4.88;;
42866;SDS011;39461;40.948;73.006;2022-07-10T08:47:54;20.30;;;5.85;;
42866;SDS011;39461;40.948;73.006;2022-07-10T08:50:29;13.82;;;4.90;;
42866;SDS011;39461;40.948;73.006;2022-07-10T08:55:44;19.48;;;5.50;;
42866;SDS011;39461;40.948;73.006;2022-07-10T08:58:17;19.60;;;5.35;;
42866;SDS011;39461;40.948;73.006;2022-07-10T09:00:51;22.10;;;5.22;;
42866;SDS011;39461;40.948;73.006;2022-07-10T09:03:25;15.63;;;5.65;;
42866;SDS011;39461;40.948;73.006;2022-07-10T09:05:58;23.77;;;5.35;;
42866;SDS011;39461;40.948;73.006;2022-07-10T09:08:32;14.60;;;4.82;;
42866;SDS011;39461;40.948;73.006;2022-07-10T09:11:16;22.95;;;5.93;;
42866;SDS011;39461;40.948;73.006;2022-07-10T09:13:50;15.02;;;6.10;;
42866;SDS011;39461;40.948;73.006;2022-07-10T09:16:31;14.25;;;4.90;;
42866;SDS011;39461;40.948;73.006;2022-07-10T09:19:15;18.25;;;5.43;;
42866;SDS011;39461;40.948;73.006;2022-07-10T09:21:53;18.27;;;4.82;;
42866;SDS011;39461;40.948;73.006;2022-07-10T09:24:26;14.68;;;5.03;;
42866;SDS011;39461;40.948;73.006;2022-07-10T09:27:07;14.45;;;4.55;;
42866;SDS011;39461;40.948;73.006;2022-07-10T09:29:45;22.50;;;5.88;;
42866;SDS011;39461;40.948;73.006;2022-07-10T09:32:20;11.77;;;5.25;;
42866;SDS011;39461;40.948;73.006;2022-07-10T09:34:50;13.05;;;5.05;;
42866;SDS011;39461;40.948;73.006;2022-07-10T09:37:42;16.08;;;6.07;;
42866;SDS011;39461;40.948;73.006;2022-07-10T09:40:15;16.30;;;5.60;;
42866;SDS011;39461;40.948;73.006;2022-07-10T09:42:48;16.13;;;5.43;;
42866;SDS011;39461;40.948;73.006;2022-07-10T09:45:21;17.48;;;6.53;;
42866;SDS011;39461;40.948;73.006;2022-07-10T09:47:59;33.22;;;6.60;;
42866;SDS011;39461;40.948;73.006;2022-07-10T09:50:35;13.45;;;5.68;;
42866;SDS011;39461;40.948;73.006;2022-07-10T09:53:09;19.88;;;7.80;;
42866;SDS011;39461;40.948;73.006;2022-07-10T09:55:42;20.95;;;6.47;;
42866;SDS011;39461;40.948;73.006;2022-07-10T09:58:16;24.42;;;6.88;;
42866;SDS011;39461;40.948;73.006;2022-07-10T10:00:49;20.42;;;5.75;;
42866;SDS011;39461;40.948;73.006;2022-07-10T10:03:23;18.90;;;6.07;;
42866;SDS011;39461;40.948;73.006;2022-07-10T10:06:16;17.48;;;6.65;;
42866;SDS011;39461;40.948;73.006;2022-07-10T10:08:56;13.60;;;5.40;;
42866;SDS011;39461;40.948;73.006;2022-07-10T10:11:31;21.05;;;6.00;;
42866;SDS011;39461;40.948;73.006;2022-07-10T10:14:07;9.55;;;4.97;;
42866;SDS011;39461;40.948;73.006;2022-07-10T10:16:34;13.82;;;5.55;;
42866;SDS011;39461;40.948;73.006;2022-07-10T10:19:08;12.85;;;5.38;;
42866;SDS011;39461;40.948;73.006;2022-07-10T10:22:00;15.90;;;5.43;;
42866;SDS011;39461;40.948;73.006;2022-07-10T10:24:34;14.48;;;5.28;;
42866;SDS011;39461;40.948;73.006;2022-07-10T10:27:09;13.13;;;5.28;;
42866;SDS011;39461;40.948;73.006;2022-07-10T10:29:42;16.20;;;5.15;;
42866;SDS011;39461;40.948;73.006;2022-07-10T10:32:22;15.35;;;5.47;;
42866;SDS011;39461;40.948;73.006;2022-07-10T10:34:55;18.63;;;6.05;;
42866;SDS011;39461;40.948;73.006;2022-07-10T10:37:33;11.15;;;4.93;;
42866;SDS011;39461;40.948;73.006;2022-07-10T10:40:10;17.02;;;5.60;;
42866;SDS011;39461;40.948;73.006;2022-07-10T10:42:43;18.67;;;5.50;;
42866;SDS011;39461;40.948;73.006;2022-07-10T10:50:45;10.65;;;4.95;;
42866;SDS011;39461;40.948;73.006;2022-07-10T10:53:23;13.73;;;4.70;;
42866;SDS011;39461;40.948;73.006;2022-07-10T10:58:41;11.75;;;5.07;;
42866;SDS011;39461;40.948;73.006;2022-07-10T11:06:38;20.85;;;5.25;;
42866;SDS011;39461;40.948;73.006;2022-07-10T11:09:25;12.68;;;4.80;;
42866;SDS011;39461;40.948;73.006;2022-07-10T11:14:36;18.08;;;4.93;;
42866;SDS011;39461;40.948;73.006;2022-07-10T11:17:09;15.85;;;5.32;;
42866;SDS011;39461;40.948;73.006;2022-07-10T11:19:44;15.40;;;5.65;;
42866;SDS011;39461;40.948;73.006;2022-07-10T11:25:31;17.55;;;5.53;;
42866;SDS011;39461;40.948;73.006;2022-07-10T11:28:07;18.00;;;5.97;;
42866;SDS011;39461;40.948;73.006;2022-07-10T11:30:45;12.55;;;5.35;;
42866;SDS011;39461;40.948;73.006;2022-07-10T11:33:18;17.95;;;6.35;;
42866;SDS011;39461;40.948;73.006;2022-07-10T11:35:54;19.08;;;5.93;;
42866;SDS011;39461;40.948;73.006;2022-07-10T11:38:31;13.20;;;5.18;;
42866;SDS011;39461;40.948;73.006;2022-07-10T11:41:15;14.93;;;5.55;;
42866;SDS011;39461;40.948;73.006;2022-07-10T11:43:55;11.90;;;6.05;;
42866;SDS011;39461;40.948;73.006;2022-07-10T11:46:32;24.05;;;5.95;;
42866;SDS011;39461;40.948;73.006;2022-07-10T11:49:07;14.75;;;5.25;;
42866;SDS011;39461;40.948;73.006;2022-07-10T11:51:43;11.82;;;5.13;;
42866;SDS011;39461;40.948;73.006;2022-07-10T11:54:18;16.92;;;5.93;;
42866;SDS011;39461;40.948;73.006;2022-07-10T11:57:04;16.08;;;5.97;;
42866;SDS011;39461;40.948;73.006;2022-07-10T11:59:38;26.77;;;6.43;;
42866;SDS011;39461;40.948;73.006;2022-07-10T12:02:21;20.00;;;6.10;;
42866;SDS011;39461;40.948;73.006;2022-07-10T12:05:00;16.30;;;5.47;;
42866;SDS011;39461;40.948;73.006;2022-07-10T12:07:37;8.63;;;4.80;;
42866;SDS011;39461;40.948;73.006;2022-07-10T12:10:11;24.15;;;5.22;;
42866;SDS011;39461;40.948;73.006;2022-07-10T12:12:44;14.48;;;5.03;;
42866;SDS011;39461;40.948;73.006;2022-07-10T12:15:36;18.13;;;5.53;;
42866;SDS011;39461;40.948;73.006;2022-07-10T12:18:17;19.65;;;4.85;;
42866;SDS011;39461;40.948;73.006;2022-07-10T12:20:51;13.07;;;4.85;;
42866;SDS011;39461;40.948;73.006;2022-07-10T12:23:24;17.35;;;5.15;;
42866;SDS011;39461;40.948;73.006;2022-07-10T12:25:59;17.10;;;4.38;;
42866;SDS011;39461;40.948;73.006;2022-07-10T12:31:25;12.48;;;4.95;;
42866;SDS011;39461;40.948;73.006;2022-07-10T12:37:11;17.77;;;4.82;;
42866;SDS011;39461;40.948;73.006;2022-07-10T12:39:48;16.73;;;4.78;;
42866;SDS011;39461;40.948;73.006;2022-07-10T12:42:24;18.80;;;5.05;;
42866;SDS011;39461;40.948;73.006;2022-07-10T12:45:09;18.63;;;4.75;;
42866;SDS011;39461;40.948;73.006;2022-07-10T12:47:48;14.30;;;5.00;;
42866;SDS011;39461;40.948;73.006;2022-07-10T12:50:22;14.32;;;4.70;;
42866;SDS011;39461;40.948;73.006;2022-07-10T12:53:07;16.73;;;5.30;;
42866;SDS011;39461;40.948;73.006;2022-07-10T12:55:40;15.35;;;4.82;;
42866;SDS011;39461;40.948;73.006;2022-07-10T12:58:14;14.18;;;4.97;;
42866;SDS011;39461;40.948;73.006;2022-07-10T13:00:51;15.75;;;5.00;;
42866;SDS011;39461;40.948;73.006;2022-07-10T13:03:35;12.95;;;4.63;;
42866;SDS011;39461;40.948;73.006;2022-07-10T13:06:26;12.98;;;4.43;;
42866;SDS011;39461;40.948;73.006;2022-07-10T13:09:02;28.60;;;5.28;;
42866;SDS011;39461;40.948;73.006;2022-07-10T13:11:39;15.93;;;4.28;;
42866;SDS011;39461;40.948;73.006;2022-07-10T13:14:14;18.45;;;5.25;;
42866;SDS011;39461;40.948;73.006;2022-07-10T13:16:49;15.20;;;5.85;;
42866;SDS011;39461;40.948;73.006;2022-07-10T13:19:24;19.73;;;6.10;;
42866;SDS011;39461;40.948;73.006;2022-07-10T13:21:57;16.75;;;5.30;;
42866;SDS011;39461;40.948;73.006;2022-07-10T13:24:33;14.05;;;7.55;;
42866;SDS011;39461;40.948;73.006;2022-07-10T13:27:06;23.00;;;7.60;;
42866;SDS011;39461;40.948;73.006;2022-07-10T13:29:41;18.63;;;6.47;;
42866;SDS011;39461;40.948;73.006;2022-07-10T13:32:16;19.83;;;7.15;;
42866;SDS011;39461;40.948;73.006;2022-07-10T13:34:45;21.17;;;6.20;;
42866;SDS011;39461;40.948;73.006;2022-07-10T13:37:13;18.08;;;6.57;;
42866;SDS011;39461;40.948;73.006;2022-07-10T13:39:46;18.58;;;6.50;;
42866;SDS011;39461;40.948;73.006;2022-07-10T13:42:22;16.60;;;6.28;;
42866;SDS011;39461;40.948;73.006;2022-07-10T13:44:57;15.45;;;6.55;;
42866;SDS011;39461;40.948;73.006;2022-07-10T13:47:32;15.05;;;6.97;;
42866;SDS011;39461;40.948;73.006;2022-07-10T13:50:05;20.70;;;8.90;;
42866;SDS011;39461;40.948;73.006;2022-07-10T13:52:40;23.63;;;8.98;;
42866;SDS011;39461;40.948;73.006;2022-07-10T13:55:13;23.38;;;9.20;;
42866;SDS011;39461;40.948;73.006;2022-07-10T13:57:48;24.20;;;8.90;;
42866;SDS011;39461;40.948;73.006;2022-07-10T14:00:25;23.85;;;9.32;;
42866;SDS011;39461;40.948;73.006;2022-07-10T14:03:00;28.25;;;10.15;;
42866;SDS011;39461;40.948;73.006;2022-07-10T14:05:35;22.83;;;9.65;;
42866;SDS011;39461;40.948;73.006;2022-07-10T14:08:10;29.73;;;10.57;;
42866;SDS011;39461;40.948;73.006;2022-07-10T14:10:46;30.83;;;10.30;;
42866;SDS011;39461;40.948;73.006;2022-07-10T14:13:21;30.92;;;10.48;;
42866;SDS011;39461;40.948;73.006;2022-07-10T14:15:56;28.13;;;10.88;;
42866;SDS011;39461;40.948;73.006;2022-07-10T14:18:31;37.88;;;11.65;;
42866;SDS011;39461;40.948;73.006;2022-07-10T14:21:11;25.67;;;10.43;;
42866;SDS011;39461;40.948;73.006;2022-07-10T14:23:47;30.50;;;12.77;;
42866;SDS011;39461;40.948;73.006;2022-07-10T14:26:22;30.45;;;11.10;;
42866;SDS011;39461;40.948;73.006;2022-07-10T14:28:57;26.55;;;10.77;;
42866;SDS011;39461;40.948;73.006;2022-07-10T14:31:28;25.20;;;11.77;;
42866;SDS011;39461;40.948;73.006;2022-07-10T14:34:01;32.10;;;13.27;;
42866;SDS011;39461;40.948;73.006;2022-07-10T14:36:36;30.90;;;12.05;;
42866;SDS011;39461;40.948;73.006;2022-07-10T14:39:15;36.92;;;13.43;;
42866;SDS011;39461;40.948;73.006;2022-07-10T14:41:48;50.25;;;15.07;;
42866;SDS011;39461;40.948;73.006;2022-07-10T14:44:21;38.95;;;14.45;;
42866;SDS011;39461;40.948;73.006;2022-07-10T14:46:55;31.85;;;12.57;;
42866;SDS011;39461;40.948;73.006;2022-07-10T14:49:28;32.13;;;11.27;;
42866;SDS011;39461;40.948;73.006;2022-07-10T14:52:01;33.05;;;11.57;;
42866;SDS011;39461;40.948;73.006;2022-07-10T14:54:34;29.48;;;11.75;;
42866;SDS011;39461;40.948;73.006;2022-07-10T14:57:07;37.58;;;13.30;;
42866;SDS011;39461;40.948;73.006;2022-07-10T14:59:40;32.67;;;12.93;;
42866;SDS011;39461;40.948;73.006;2022-07-10T15:02:17;28.08;;;11.82;;
42866;SDS011;39461;40.948;73.006;2022-07-10T15:04:50;31.40;;;12.25;;
42866;SDS011;39461;40.948;73.006;2022-07-10T15:07:25;29.73;;;13.85;;
42866;SDS011;39461;40.948;73.006;2022-07-10T15:09:59;35.15;;;13.82;;
42866;SDS011;39461;40.948;73.006;2022-07-10T15:12:32;43.80;;;17.42;;
42866;SDS011;39461;40.948;73.006;2022-07-10T15:15:00;49.40;;;17.88;;
42866;SDS011;39461;40.948;73.006;2022-07-10T15:17:39;53.58;;;20.83;;
42866;SDS011;39461;40.948;73.006;2022-07-10T15:20:19;54.63;;;22.38;;
42866;SDS011;39461;40.948;73.006;2022-07-10T15:22:53;56.83;;;21.05;;
42866;SDS011;39461;40.948;73.006;2022-07-10T15:25:26;55.55;;;21.98;;
42866;SDS011;39461;40.948;73.006;2022-07-10T15:27:59;66.28;;;23.38;;
42866;SDS011;39461;40.948;73.006;2022-07-10T15:30:34;58.13;;;21.02;;
42866;SDS011;39461;40.948;73.006;2022-07-10T15:33:09;61.28;;;21.08;;
42866;SDS011;39461;40.948;73.006;2022-07-10T15:35:36;58.13;;;20.38;;
42866;SDS011;39461;40.948;73.006;2022-07-10T15:38:09;62.05;;;24.02;;